This is the latest recevied weather packets stored in our database for station/object SP1BMW-13. If no packets are shown the sender has not sent any weather packets the latest 10 day(s).
| Time | Temp. | Humidity | Pressure | Rain* | Wind** | Luminosity | Snow |
|---|---|---|---|---|---|---|---|
| 1787879056 | 17.78° C | 61% | 1015.2 hPa | 0 mm | 0 m/s | 0 W/m² | - |
| 1787878997 | 17.78° C | 61% | 1014.9 hPa | 0 mm | 0.45 m/s, 11° | 0 W/m² | - |
| 1787878937 | 17.78° C | 60% | 1014.9 hPa | 0 mm | 0.89 m/s, 39° | 0 W/m² | - |
| 1787878877 | 17.78° C | 60% | 1015 hPa | 0 mm | 0.45 m/s, 85° | 0 W/m² | - |
| 1787878817 | 17.78° C | 61% | 1014.8 hPa | 0 mm | 1.34 m/s, 177° | 0 W/m² | - |
| 1787878757 | 17.78° C | 61% | 1015.1 hPa | 0 mm | 0.45 m/s, 38° | 0 W/m² | - |
| 1787878696 | 17.78° C | 61% | 1015 hPa | 0 mm | 0.89 m/s, 65° | 0 W/m² | - |
| 1787878637 | 17.78° C | 60% | 1014.9 hPa | 0 mm | 0.45 m/s, 66° | 0 W/m² | - |
| 1787878577 | 17.78° C | 60% | 1014.8 hPa | 0 mm | 1.34 m/s, 142° | 0 W/m² | - |
| 1787878517 | 17.78° C | 60% | 1014.9 hPa | 0 mm | 0.45 m/s, 62° | 0 W/m² | - |
| 1787878457 | 17.78° C | 60% | 1015 hPa | 0 mm | 1.34 m/s, 58° | 0 W/m² | - |
| 1787878397 | 17.78° C | 61% | 1014.9 hPa | 0 mm | 0.89 m/s, 60° | 0 W/m² | - |
| 1787878337 | 17.78° C | 61% | 1014.8 hPa | 0 mm | 0.89 m/s, 237° | 0 W/m² | - |
| 1787878277 | 17.78° C | 61% | 1014.7 hPa | 0 mm | 0.45 m/s, 137° | 0 W/m² | - |
| 1787878217 | 17.78° C | 60% | 1014.7 hPa | 0 mm | 0.45 m/s, 29° | 0 W/m² | - |
| 1787878157 | 17.78° C | 60% | 1014.7 hPa | 0 mm | 1.34 m/s, 85° | 0 W/m² | - |
| 1787878097 | 17.78° C | 60% | 1014.8 hPa | 0 mm | 0.89 m/s, 167° | 0 W/m² | - |
| 1787878037 | 17.78° C | 60% | 1014.9 hPa | 0 mm | 1.34 m/s, 34° | 0 W/m² | - |
| 1787877977 | 17.78° C | 60% | 1014.7 hPa | 0 mm | 0.45 m/s, 103° | 0 W/m² | - |
| 1787877917 | 17.78° C | 60% | 1015.1 hPa | 0 mm | 0.89 m/s, 26° | 0 W/m² | - |
| 1787877857 | 17.78° C | 60% | 1014.9 hPa | 0 mm | 1.34 m/s, 68° | 0 W/m² | - |
| 1787877797 | 17.78° C | 60% | 1014.7 hPa | 0 mm | 0.89 m/s, 131° | 0 W/m² | - |
| 1787877737 | 17.78° C | 60% | 1015 hPa | 0 mm | 0.89 m/s, 49° | 0 W/m² | - |
| 1787877677 | 17.78° C | 60% | 1014.9 hPa | 0 mm | 1.79 m/s, 50° | 0 W/m² | - |
| 1787877616 | 17.78° C | 60% | 1014.9 hPa | 0 mm | 0.89 m/s, 36° | 0 W/m² | - |
* Rain latest hour (hover to see other rain measurements)
** Current wind speed in m/s (hover to see current wind gust speed)